sensor_id;sensor_type;location;lat;lon;timestamp;pressure;altitude;pressure_sealevel;temperature;humidity
13594;BME280;6449;47.666;9.160;2023-08-06T00:03:14;96408.94;;;16.95;100.00
13594;BME280;6449;47.666;9.160;2023-08-06T00:08:07;96414.88;;;16.97;100.00
13594;BME280;6449;47.666;9.160;2023-08-06T00:13:02;96407.78;;;16.89;100.00
13594;BME280;6449;47.666;9.160;2023-08-06T00:17:56;96412.25;;;16.89;100.00
13594;BME280;6449;47.666;9.160;2023-08-06T00:22:49;96401.34;;;16.84;100.00
13594;BME280;6449;47.666;9.160;2023-08-06T00:27:42;96401.03;;;16.79;100.00
13594;BME280;6449;47.666;9.160;2023-08-06T00:32:37;96383.78;;;16.83;100.00
13594;BME280;6449;47.666;9.160;2023-08-06T00:37:30;96369.41;;;16.77;100.00
13594;BME280;6449;47.666;9.160;2023-08-06T00:42:24;96370.41;;;16.76;100.00
13594;BME280;6449;47.666;9.160;2023-08-06T00:47:17;96373.22;;;16.58;100.00
13594;BME280;6449;47.666;9.160;2023-08-06T00:52:13;96371.38;;;16.50;100.00
13594;BME280;6449;47.666;9.160;2023-08-06T00:57:07;96373.88;;;16.44;100.00
13594;BME280;6449;47.666;9.160;2023-08-06T01:02:02;96356.31;;;16.35;100.00
13594;BME280;6449;47.666;9.160;2023-08-06T01:07:06;96356.69;;;16.32;100.00
13594;BME280;6449;47.666;9.160;2023-08-06T01:12:20;96342.28;;;16.34;100.00
13594;BME280;6449;47.666;9.160;2023-08-06T01:17:16;96349.22;;;16.19;100.00
13594;BME280;6449;47.666;9.160;2023-08-06T01:22:11;96347.09;;;16.14;100.00
13594;BME280;6449;47.666;9.160;2023-08-06T01:27:11;96341.78;;;16.22;100.00
13594;BME280;6449;47.666;9.160;2023-08-06T01:32:10;96329.22;;;16.16;100.00
13594;BME280;6449;47.666;9.160;2023-08-06T01:37:05;96337.47;;;15.97;100.00
13594;BME280;6449;47.666;9.160;2023-08-06T01:42:00;96336.66;;;15.88;100.00
13594;BME280;6449;47.666;9.160;2023-08-06T01:46:54;96324.75;;;15.84;100.00
13594;BME280;6449;47.666;9.160;2023-08-06T01:51:47;96334.16;;;15.87;100.00
13594;BME280;6449;47.666;9.160;2023-08-06T01:56:41;96332.19;;;15.89;100.00
13594;BME280;6449;47.666;9.160;2023-08-06T02:01:35;96341.94;;;15.88;100.00
13594;BME280;6449;47.666;9.160;2023-08-06T02:06:29;96337.63;;;15.79;100.00
13594;BME280;6449;47.666;9.160;2023-08-06T02:11:22;96332.47;;;15.69;100.00
13594;BME280;6449;47.666;9.160;2023-08-06T02:16:15;96311.69;;;15.83;100.00
13594;BME280;6449;47.666;9.160;2023-08-06T02:21:10;96306.41;;;15.91;100.00
13594;BME280;6449;47.666;9.160;2023-08-06T02:26:04;96292.53;;;16.05;100.00
13594;BME280;6449;47.666;9.160;2023-08-06T02:30:58;96294.84;;;16.16;100.00
13594;BME280;6449;47.666;9.160;2023-08-06T02:35:58;96304.91;;;15.96;100.00
13594;BME280;6449;47.666;9.160;2023-08-06T02:40:53;96288.91;;;16.06;100.00
13594;BME280;6449;47.666;9.160;2023-08-06T02:45:47;96294.50;;;15.87;100.00
13594;BME280;6449;47.666;9.160;2023-08-06T02:50:41;96298.31;;;15.84;100.00
13594;BME280;6449;47.666;9.160;2023-08-06T02:55:35;96285.06;;;15.76;100.00
13594;BME280;6449;47.666;9.160;2023-08-06T03:00:30;96282.28;;;15.78;100.00
13594;BME280;6449;47.666;9.160;2023-08-06T03:05:23;96280.63;;;15.77;100.00
13594;BME280;6449;47.666;9.160;2023-08-06T03:10:16;96273.88;;;15.82;100.00
13594;BME280;6449;47.666;9.160;2023-08-06T03:15:10;96282.09;;;15.79;100.00
13594;BME280;6449;47.666;9.160;2023-08-06T03:20:08;96271.03;;;15.76;100.00
13594;BME280;6449;47.666;9.160;2023-08-06T03:25:04;96267.59;;;15.83;100.00
13594;BME280;6449;47.666;9.160;2023-08-06T03:29:57;96262.06;;;15.52;100.00
13594;BME280;6449;47.666;9.160;2023-08-06T03:34:53;96269.66;;;15.55;100.00
13594;BME280;6449;47.666;9.160;2023-08-06T03:39:47;96280.56;;;15.60;100.00
13594;BME280;6449;47.666;9.160;2023-08-06T03:44:41;96279.25;;;15.56;100.00
13594;BME280;6449;47.666;9.160;2023-08-06T03:49:34;96275.25;;;15.44;100.00
13594;BME280;6449;47.666;9.160;2023-08-06T03:54:27;96267.50;;;15.51;100.00
13594;BME280;6449;47.666;9.160;2023-08-06T03:59:23;96292.84;;;15.69;100.00
13594;BME280;6449;47.666;9.160;2023-08-06T04:04:16;96290.34;;;15.76;100.00
13594;BME280;6449;47.666;9.160;2023-08-06T04:09:10;96278.28;;;15.65;100.00
13594;BME280;6449;47.666;9.160;2023-08-06T04:14:03;96285.25;;;15.83;100.00
13594;BME280;6449;47.666;9.160;2023-08-06T04:18:58;96281.13;;;15.80;100.00
13594;BME280;6449;47.666;9.160;2023-08-06T04:23:51;96281.94;;;15.81;100.00
13594;BME280;6449;47.666;9.160;2023-08-06T04:28:45;96279.78;;;15.76;100.00
13594;BME280;6449;47.666;9.160;2023-08-06T04:33:38;96284.59;;;15.89;100.00
13594;BME280;6449;47.666;9.160;2023-08-06T04:38:33;96291.53;;;15.90;100.00
13594;BME280;6449;47.666;9.160;2023-08-06T04:43:26;96303.09;;;15.81;100.00
13594;BME280;6449;47.666;9.160;2023-08-06T04:48:20;96318.31;;;15.44;100.00
13594;BME280;6449;47.666;9.160;2023-08-06T04:53:13;96321.22;;;15.17;100.00
13594;BME280;6449;47.666;9.160;2023-08-06T04:58:09;96318.16;;;14.96;100.00
13594;BME280;6449;47.666;9.160;2023-08-06T05:03:03;96334.03;;;15.04;100.00
13594;BME280;6449;47.666;9.160;2023-08-06T05:07:57;96328.66;;;15.22;100.00
13594;BME280;6449;47.666;9.160;2023-08-06T05:12:51;96350.19;;;15.35;100.00
13594;BME280;6449;47.666;9.160;2023-08-06T05:17:45;96354.81;;;14.99;100.00
13594;BME280;6449;47.666;9.160;2023-08-06T05:22:39;96368.84;;;15.07;100.00
13594;BME280;6449;47.666;9.160;2023-08-06T05:27:32;96379.31;;;14.91;100.00
13594;BME280;6449;47.666;9.160;2023-08-06T05:32:25;96374.94;;;15.00;100.00
13594;BME280;6449;47.666;9.160;2023-08-06T05:37:20;96381.38;;;15.05;100.00
13594;BME280;6449;47.666;9.160;2023-08-06T05:42:13;96385.22;;;14.85;100.00
13594;BME280;6449;47.666;9.160;2023-08-06T05:47:07;96366.38;;;14.80;100.00
13594;BME280;6449;47.666;9.160;2023-08-06T05:52:00;96378.03;;;14.69;100.00
13594;BME280;6449;47.666;9.160;2023-08-06T05:56:56;96393.41;;;14.74;100.00
13594;BME280;6449;47.666;9.160;2023-08-06T06:01:49;96401.78;;;14.69;100.00
13594;BME280;6449;47.666;9.160;2023-08-06T06:06:44;96400.69;;;14.80;100.00
13594;BME280;6449;47.666;9.160;2023-08-06T06:11:38;96417.22;;;15.08;100.00
13594;BME280;6449;47.666;9.160;2023-08-06T06:16:33;96421.66;;;15.07;100.00
13594;BME280;6449;47.666;9.160;2023-08-06T06:21:27;96398.19;;;15.30;100.00
13594;BME280;6449;47.666;9.160;2023-08-06T06:26:21;96411.91;;;15.34;100.00
13594;BME280;6449;47.666;9.160;2023-08-06T06:31:15;96422.00;;;15.12;100.00
13594;BME280;6449;47.666;9.160;2023-08-06T06:36:09;96424.88;;;15.19;100.00
13594;BME280;6449;47.666;9.160;2023-08-06T06:41:03;96419.91;;;15.16;100.00
13594;BME280;6449;47.666;9.160;2023-08-06T06:45:57;96408.59;;;15.32;100.00
13594;BME280;6449;47.666;9.160;2023-08-06T06:50:51;96421.16;;;15.64;100.00
13594;BME280;6449;47.666;9.160;2023-08-06T06:55:46;96433.41;;;15.73;100.00
13594;BME280;6449;47.666;9.160;2023-08-06T07:00:41;96430.41;;;15.68;100.00
13594;BME280;6449;47.666;9.160;2023-08-06T07:05:34;96414.13;;;15.97;100.00
13594;BME280;6449;47.666;9.160;2023-08-06T07:10:28;96435.25;;;15.81;100.00
13594;BME280;6449;47.666;9.160;2023-08-06T07:15:23;96434.53;;;15.70;100.00
13594;BME280;6449;47.666;9.160;2023-08-06T07:20:16;96450.34;;;15.62;100.00
13594;BME280;6449;47.666;9.160;2023-08-06T07:25:09;96446.53;;;15.57;100.00
13594;BME280;6449;47.666;9.160;2023-08-06T07:30:04;96464.78;;;15.42;100.00
13594;BME280;6449;47.666;9.160;2023-08-06T07:35:00;96455.03;;;15.42;100.00
13594;BME280;6449;47.666;9.160;2023-08-06T07:39:55;96464.19;;;15.56;100.00
13594;BME280;6449;47.666;9.160;2023-08-06T07:44:52;96473.94;;;15.56;100.00
13594;BME280;6449;47.666;9.160;2023-08-06T07:49:45;96459.13;;;15.37;100.00
13594;BME280;6449;47.666;9.160;2023-08-06T07:54:40;96454.41;;;15.49;100.00
13594;BME280;6449;47.666;9.160;2023-08-06T07:59:34;96446.88;;;15.62;100.00
13594;BME280;6449;47.666;9.160;2023-08-06T08:04:27;96460.63;;;15.65;100.00
13594;BME280;6449;47.666;9.160;2023-08-06T08:09:20;96464.84;;;15.84;100.00
13594;BME280;6449;47.666;9.160;2023-08-06T08:14:15;96460.91;;;15.62;100.00
13594;BME280;6449;47.666;9.160;2023-08-06T08:19:11;96471.59;;;15.79;100.00
13594;BME280;6449;47.666;9.160;2023-08-06T08:24:04;96458.91;;;15.82;100.00
13594;BME280;6449;47.666;9.160;2023-08-06T08:28:58;96465.44;;;15.70;100.00
13594;BME280;6449;47.666;9.160;2023-08-06T08:33:53;96463.03;;;15.25;100.00
13594;BME280;6449;47.666;9.160;2023-08-06T08:38:50;96451.56;;;15.42;100.00
13594;BME280;6449;47.666;9.160;2023-08-06T08:43:48;96467.53;;;15.32;100.00
13594;BME280;6449;47.666;9.160;2023-08-06T08:48:43;96466.25;;;15.44;100.00
13594;BME280;6449;47.666;9.160;2023-08-06T08:53:40;96474.25;;;15.53;100.00
13594;BME280;6449;47.666;9.160;2023-08-06T08:58:37;96468.25;;;15.42;100.00
13594;BME280;6449;47.666;9.160;2023-08-06T09:03:31;96457.56;;;15.52;100.00
13594;BME280;6449;47.666;9.160;2023-08-06T09:08:33;96477.88;;;15.52;100.00
13594;BME280;6449;47.666;9.160;2023-08-06T09:13:29;96485.00;;;15.59;100.00
13594;BME280;6449;47.666;9.160;2023-08-06T09:18:27;96493.94;;;15.58;100.00
13594;BME280;6449;47.666;9.160;2023-08-06T09:23:20;96502.84;;;15.83;100.00
13594;BME280;6449;47.666;9.160;2023-08-06T09:28:20;96515.22;;;15.83;100.00
13594;BME280;6449;47.666;9.160;2023-08-06T09:33:18;96519.72;;;15.90;100.00
13594;BME280;6449;47.666;9.160;2023-08-06T09:38:12;96517.59;;;15.94;100.00
13594;BME280;6449;47.666;9.160;2023-08-06T09:43:06;96518.88;;;15.90;100.00
13594;BME280;6449;47.666;9.160;2023-08-06T09:48:03;96510.09;;;15.81;100.00
13594;BME280;6449;47.666;9.160;2023-08-06T09:52:59;96517.81;;;15.75;100.00
13594;BME280;6449;47.666;9.160;2023-08-06T09:57:53;96510.16;;;15.97;100.00
13594;BME280;6449;47.666;9.160;2023-08-06T10:02:47;96509.91;;;16.17;100.00
13594;BME280;6449;47.666;9.160;2023-08-06T10:07:43;96524.44;;;16.80;100.00
13594;BME280;6449;47.666;9.160;2023-08-06T10:12:44;96538.22;;;16.99;100.00
13594;BME280;6449;47.666;9.160;2023-08-06T10:17:41;96528.91;;;17.20;100.00
13594;BME280;6449;47.666;9.160;2023-08-06T10:22:43;96525.94;;;17.23;100.00
13594;BME280;6449;47.666;9.160;2023-08-06T10:27:55;96539.00;;;16.92;100.00
13594;BME280;6449;47.666;9.160;2023-08-06T10:32:49;96534.78;;;16.48;100.00
13594;BME280;6449;47.666;9.160;2023-08-06T10:37:45;96536.88;;;16.20;100.00
13594;BME280;6449;47.666;9.160;2023-08-06T10:42:41;96534.34;;;16.11;100.00
13594;BME280;6449;47.666;9.160;2023-08-06T10:47:38;96533.75;;;15.91;100.00
13594;BME280;6449;47.666;9.160;2023-08-06T10:52:35;96529.75;;;15.87;100.00
13594;BME280;6449;47.666;9.160;2023-08-06T10:57:28;96533.22;;;16.30;100.00
13594;BME280;6449;47.666;9.160;2023-08-06T11:02:23;96542.22;;;16.37;100.00
13594;BME280;6449;47.666;9.160;2023-08-06T11:07:16;96546.84;;;16.51;100.00
13594;BME280;6449;47.666;9.160;2023-08-06T11:12:18;96546.22;;;16.57;100.00
13594;BME280;6449;47.666;9.160;2023-08-06T11:17:12;96552.75;;;16.79;100.00
13594;BME280;6449;47.666;9.160;2023-08-06T11:22:07;96546.66;;;16.95;100.00
13594;BME280;6449;47.666;9.160;2023-08-06T11:27:00;96572.06;;;16.71;100.00
13594;BME280;6449;47.666;9.160;2023-08-06T11:32:03;96567.66;;;16.96;100.00
13594;BME280;6449;47.666;9.160;2023-08-06T11:36:57;96572.47;;;17.01;100.00
13594;BME280;6449;47.666;9.160;2023-08-06T11:41:52;96582.22;;;17.00;100.00
13594;BME280;6449;47.666;9.160;2023-08-06T11:46:53;96586.38;;;17.11;100.00
13594;BME280;6449;47.666;9.160;2023-08-06T11:51:48;96587.22;;;17.12;100.00
13594;BME280;6449;47.666;9.160;2023-08-06T11:56:42;96590.84;;;17.11;100.00
13594;BME280;6449;47.666;9.160;2023-08-06T12:01:38;96596.28;;;16.93;100.00
13594;BME280;6449;47.666;9.160;2023-08-06T12:06:42;96603.03;;;16.71;100.00
13594;BME280;6449;47.666;9.160;2023-08-06T12:11:36;96606.94;;;16.67;100.00
13594;BME280;6449;47.666;9.160;2023-08-06T12:16:29;96611.34;;;16.50;100.00
13594;BME280;6449;47.666;9.160;2023-08-06T12:21:24;96611.47;;;16.83;100.00
13594;BME280;6449;47.666;9.160;2023-08-06T12:26:17;96619.09;;;16.86;100.00
13594;BME280;6449;47.666;9.160;2023-08-06T12:31:11;96611.50;;;16.91;100.00
13594;BME280;6449;47.666;9.160;2023-08-06T12:36:04;96612.16;;;16.85;100.00
13594;BME280;6449;47.666;9.160;2023-08-06T12:40:59;96608.69;;;16.84;100.00
13594;BME280;6449;47.666;9.160;2023-08-06T12:45:52;96610.34;;;16.93;100.00
13594;BME280;6449;47.666;9.160;2023-08-06T12:50:46;96611.19;;;16.94;100.00
13594;BME280;6449;47.666;9.160;2023-08-06T12:55:41;96613.19;;;17.00;100.00
13594;BME280;6449;47.666;9.160;2023-08-06T13:00:36;96611.03;;;17.12;100.00
13594;BME280;6449;47.666;9.160;2023-08-06T13:05:30;96619.50;;;17.15;100.00
13594;BME280;6449;47.666;9.160;2023-08-06T13:10:23;96612.53;;;17.06;100.00
13594;BME280;6449;47.666;9.160;2023-08-06T13:15:17;96630.72;;;17.09;100.00
13594;BME280;6449;47.666;9.160;2023-08-06T13:20:14;96647.13;;;17.13;100.00
13594;BME280;6449;47.666;9.160;2023-08-06T13:25:11;96638.19;;;17.06;100.00
13594;BME280;6449;47.666;9.160;2023-08-06T13:30:08;96644.31;;;17.06;100.00
13594;BME280;6449;47.666;9.160;2023-08-06T13:35:02;96640.19;;;17.20;100.00
13594;BME280;6449;47.666;9.160;2023-08-06T13:40:03;96632.25;;;17.12;100.00
13594;BME280;6449;47.666;9.160;2023-08-06T13:44:58;96660.25;;;17.39;100.00
13594;BME280;6449;47.666;9.160;2023-08-06T13:49:55;96645.50;;;17.44;100.00
13594;BME280;6449;47.666;9.160;2023-08-06T13:54:49;96657.28;;;17.50;100.00
13594;BME280;6449;47.666;9.160;2023-08-06T13:59:43;96667.22;;;17.72;100.00
13594;BME280;6449;47.666;9.160;2023-08-06T14:04:37;96669.88;;;17.48;100.00
13594;BME280;6449;47.666;9.160;2023-08-06T14:09:31;96671.34;;;17.67;100.00
13594;BME280;6449;47.666;9.160;2023-08-06T14:14:26;96687.75;;;17.62;100.00
13594;BME280;6449;47.666;9.160;2023-08-06T14:19:21;96676.31;;;17.62;100.00
13594;BME280;6449;47.666;9.160;2023-08-06T14:24:17;96683.47;;;17.69;100.00
13594;BME280;6449;47.666;9.160;2023-08-06T14:29:10;96694.44;;;17.91;100.00
13594;BME280;6449;47.666;9.160;2023-08-06T14:34:05;96712.31;;;17.80;100.00
13594;BME280;6449;47.666;9.160;2023-08-06T14:39:01;96698.72;;;18.08;100.00
13594;BME280;6449;47.666;9.160;2023-08-06T14:43:55;96720.09;;;18.15;100.00
13594;BME280;6449;47.666;9.160;2023-08-06T14:48:48;96711.97;;;18.08;100.00
13594;BME280;6449;47.666;9.160;2023-08-06T14:53:42;96714.97;;;17.89;100.00
13594;BME280;6449;47.666;9.160;2023-08-06T14:58:37;96720.09;;;17.82;100.00
13594;BME280;6449;47.666;9.160;2023-08-06T15:03:35;96711.97;;;17.59;100.00
13594;BME280;6449;47.666;9.160;2023-08-06T15:08:28;96720.88;;;17.50;100.00
13594;BME280;6449;47.666;9.160;2023-08-06T15:13:21;96727.91;;;17.75;100.00
13594;BME280;6449;47.666;9.160;2023-08-06T15:18:16;96727.88;;;17.84;100.00
13594;BME280;6449;47.666;9.160;2023-08-06T15:23:11;96751.75;;;17.84;100.00
13594;BME280;6449;47.666;9.160;2023-08-06T15:28:04;96757.72;;;17.94;100.00
13594;BME280;6449;47.666;9.160;2023-08-06T15:32:59;96758.88;;;17.99;100.00
13594;BME280;6449;47.666;9.160;2023-08-06T15:37:54;96755.44;;;18.07;100.00
13594;BME280;6449;47.666;9.160;2023-08-06T15:42:48;96763.38;;;18.15;100.00
13594;BME280;6449;47.666;9.160;2023-08-06T15:48:12;96775.16;;;18.29;100.00
13594;BME280;6449;47.666;9.160;2023-08-06T15:53:11;96769.84;;;18.13;100.00
13594;BME280;6449;47.666;9.160;2023-08-06T15:58:05;96766.69;;;17.85;100.00
13594;BME280;6449;47.666;9.160;2023-08-06T16:02:58;96781.06;;;17.66;100.00
13594;BME280;6449;47.666;9.160;2023-08-06T16:07:51;96792.50;;;17.58;100.00
13594;BME280;6449;47.666;9.160;2023-08-06T16:12:46;96835.03;;;17.06;100.00
13594;BME280;6449;47.666;9.160;2023-08-06T16:17:40;96811.25;;;16.18;100.00
13594;BME280;6449;47.666;9.160;2023-08-06T16:22:33;96791.78;;;16.02;100.00
13594;BME280;6449;47.666;9.160;2023-08-06T16:27:26;96797.44;;;16.07;100.00
13594;BME280;6449;47.666;9.160;2023-08-06T16:32:21;96800.75;;;16.27;100.00
13594;BME280;6449;47.666;9.160;2023-08-06T16:37:14;96804.53;;;16.50;100.00
13594;BME280;6449;47.666;9.160;2023-08-06T16:42:08;96817.75;;;16.42;100.00
13594;BME280;6449;47.666;9.160;2023-08-06T16:47:01;96805.59;;;16.31;100.00
13594;BME280;6449;47.666;9.160;2023-08-06T16:51:57;96823.91;;;16.24;100.00
13594;BME280;6449;47.666;9.160;2023-08-06T16:56:50;96827.28;;;16.17;100.00
13594;BME280;6449;47.666;9.160;2023-08-06T17:01:44;96848.16;;;16.20;100.00
13594;BME280;6449;47.666;9.160;2023-08-06T17:06:37;96866.88;;;16.27;100.00
13594;BME280;6449;47.666;9.160;2023-08-06T17:11:32;96860.81;;;16.34;100.00
13594;BME280;6449;47.666;9.160;2023-08-06T17:16:25;96867.44;;;16.30;100.00
13594;BME280;6449;47.666;9.160;2023-08-06T17:21:19;96870.53;;;16.26;100.00
13594;BME280;6449;47.666;9.160;2023-08-06T17:26:12;96882.44;;;16.30;100.00
13594;BME280;6449;47.666;9.160;2023-08-06T17:31:07;96882.81;;;16.35;100.00
13594;BME280;6449;47.666;9.160;2023-08-06T17:36:00;96883.88;;;16.24;100.00
13594;BME280;6449;47.666;9.160;2023-08-06T17:40:54;96900.28;;;16.28;100.00
13594;BME280;6449;47.666;9.160;2023-08-06T17:45:49;96899.84;;;16.14;100.00
13594;BME280;6449;47.666;9.160;2023-08-06T17:50:45;96896.66;;;16.11;100.00
13594;BME280;6449;47.666;9.160;2023-08-06T17:55:38;96908.16;;;16.02;100.00
13594;BME280;6449;47.666;9.160;2023-08-06T18:00:32;96915.31;;;15.91;100.00
13594;BME280;6449;47.666;9.160;2023-08-06T18:05:25;96924.31;;;15.71;100.00
13594;BME280;6449;47.666;9.160;2023-08-06T18:10:24;96926.31;;;15.87;100.00
13594;BME280;6449;47.666;9.160;2023-08-06T18:15:17;96929.94;;;15.86;100.00
13594;BME280;6449;47.666;9.160;2023-08-06T18:20:11;96931.06;;;16.11;100.00
13594;BME280;6449;47.666;9.160;2023-08-06T18:25:06;96929.53;;;16.08;100.00
13594;BME280;6449;47.666;9.160;2023-08-06T18:30:02;96929.53;;;16.08;100.00
13594;BME280;6449;47.666;9.160;2023-08-06T18:34:55;96936.72;;;15.98;100.00
13594;BME280;6449;47.666;9.160;2023-08-06T18:39:49;96953.47;;;15.89;100.00
13594;BME280;6449;47.666;9.160;2023-08-06T18:44:42;96956.34;;;15.95;100.00
13594;BME280;6449;47.666;9.160;2023-08-06T18:49:38;96964.31;;;15.86;100.00
13594;BME280;6449;47.666;9.160;2023-08-06T18:54:33;96979.50;;;15.84;100.00
13594;BME280;6449;47.666;9.160;2023-08-06T18:59:30;96988.63;;;15.71;100.00
13594;BME280;6449;47.666;9.160;2023-08-06T19:04:23;96996.78;;;15.78;100.00
13594;BME280;6449;47.666;9.160;2023-08-06T19:09:21;96995.25;;;15.76;100.00
13594;BME280;6449;47.666;9.160;2023-08-06T19:14:14;97012.09;;;15.75;100.00
13594;BME280;6449;47.666;9.160;2023-08-06T19:19:08;97025.31;;;15.75;100.00
13594;BME280;6449;47.666;9.160;2023-08-06T19:24:02;97025.06;;;15.58;100.00
13594;BME280;6449;47.666;9.160;2023-08-06T19:28:57;97016.03;;;15.61;100.00
13594;BME280;6449;47.666;9.160;2023-08-06T19:33:51;97018.81;;;15.59;100.00
13594;BME280;6449;47.666;9.160;2023-08-06T19:38:44;97017.34;;;15.37;100.00
13594;BME280;6449;47.666;9.160;2023-08-06T19:43:38;97020.44;;;15.23;100.00
13594;BME280;6449;47.666;9.160;2023-08-06T19:48:34;97020.94;;;15.46;100.00
13594;BME280;6449;47.666;9.160;2023-08-06T19:53:27;97017.91;;;15.41;100.00
13594;BME280;6449;47.666;9.160;2023-08-06T19:58:27;97020.53;;;15.41;100.00
13594;BME280;6449;47.666;9.160;2023-08-06T20:03:20;97018.31;;;15.36;100.00
13594;BME280;6449;47.666;9.160;2023-08-06T20:08:15;97019.59;;;15.32;100.00
13594;BME280;6449;47.666;9.160;2023-08-06T20:13:09;97010.25;;;15.38;100.00
13594;BME280;6449;47.666;9.160;2023-08-06T20:18:02;97009.66;;;15.44;100.00
13594;BME280;6449;47.666;9.160;2023-08-06T20:22:56;97015.53;;;15.38;100.00
13594;BME280;6449;47.666;9.160;2023-08-06T20:27:53;97007.78;;;15.27;100.00
13594;BME280;6449;47.666;9.160;2023-08-06T20:32:46;97009.97;;;15.41;100.00
13594;BME280;6449;47.666;9.160;2023-08-06T20:37:40;97014.16;;;15.34;100.00
13594;BME280;6449;47.666;9.160;2023-08-06T20:42:35;97000.09;;;15.43;100.00
13594;BME280;6449;47.666;9.160;2023-08-06T20:47:37;97006.53;;;15.31;100.00
13594;BME280;6449;47.666;9.160;2023-08-06T20:52:31;97004.13;;;15.47;100.00
13594;BME280;6449;47.666;9.160;2023-08-06T20:57:24;97016.53;;;15.17;100.00
13594;BME280;6449;47.666;9.160;2023-08-06T21:02:18;97010.31;;;15.09;100.00
13594;BME280;6449;47.666;9.160;2023-08-06T21:07:15;97004.91;;;15.01;100.00
13594;BME280;6449;47.666;9.160;2023-08-06T21:12:08;97026.75;;;15.03;100.00
13594;BME280;6449;47.666;9.160;2023-08-06T21:17:02;97019.75;;;15.11;100.00
13594;BME280;6449;47.666;9.160;2023-08-06T21:21:55;97031.41;;;15.28;100.00
13594;BME280;6449;47.666;9.160;2023-08-06T21:26:50;97025.28;;;15.28;100.00
13594;BME280;6449;47.666;9.160;2023-08-06T21:31:43;97036.16;;;15.05;100.00
13594;BME280;6449;47.666;9.160;2023-08-06T21:36:37;97041.56;;;15.23;100.00
13594;BME280;6449;47.666;9.160;2023-08-06T21:41:30;97043.13;;;15.06;100.00
13594;BME280;6449;47.666;9.160;2023-08-06T21:46:25;97043.13;;;15.06;100.00
13594;BME280;6449;47.666;9.160;2023-08-06T21:51:20;97053.81;;;15.14;100.00
13594;BME280;6449;47.666;9.160;2023-08-06T21:56:15;97063.56;;;15.04;100.00
13594;BME280;6449;47.666;9.160;2023-08-06T22:01:10;97061.47;;;14.98;100.00
13594;BME280;6449;47.666;9.160;2023-08-06T22:06:06;97062.31;;;14.89;100.00
13594;BME280;6449;47.666;9.160;2023-08-06T22:11:01;97071.47;;;14.94;100.00
13594;BME280;6449;47.666;9.160;2023-08-06T22:15:55;97068.56;;;14.88;100.00
13594;BME280;6449;47.666;9.160;2023-08-06T22:20:50;97068.28;;;14.72;100.00
13594;BME280;6449;47.666;9.160;2023-08-06T22:25:45;97065.66;;;14.72;100.00
13594;BME280;6449;47.666;9.160;2023-08-06T22:30:38;97068.81;;;14.75;100.00
13594;BME280;6449;47.666;9.160;2023-08-06T22:35:32;97062.59;;;14.76;100.00
13594;BME280;6449;47.666;9.160;2023-08-06T22:40:25;97064.81;;;14.71;100.00
13594;BME280;6449;47.666;9.160;2023-08-06T22:45:20;97067.44;;;14.71;100.00
13594;BME280;6449;47.666;9.160;2023-08-06T22:50:14;97065.06;;;14.58;100.00
13594;BME280;6449;47.666;9.160;2023-08-06T22:55:08;97072.16;;;14.67;100.00
13594;BME280;6449;47.666;9.160;2023-08-06T23:00:15;97068.25;;;14.52;100.00
13594;BME280;6449;47.666;9.160;2023-08-06T23:05:10;97068.97;;;14.54;100.00
13594;BME280;6449;47.666;9.160;2023-08-06T23:10:05;97078.69;;;14.63;100.00
13594;BME280;6449;47.666;9.160;2023-08-06T23:14:59;97082.16;;;14.54;100.00
13594;BME280;6449;47.666;9.160;2023-08-06T23:19:52;97092.50;;;14.46;100.00
13594;BME280;6449;47.666;9.160;2023-08-06T23:24:49;97102.22;;;14.46;100.00
13594;BME280;6449;47.666;9.160;2023-08-06T23:29:43;97088.53;;;14.11;100.00
13594;BME280;6449;47.666;9.160;2023-08-06T23:34:36;97094.44;;;14.34;100.00
13594;BME280;6449;47.666;9.160;2023-08-06T23:39:45;97090.13;;;14.43;100.00
13594;BME280;6449;47.666;9.160;2023-08-06T23:44:40;97088.75;;;14.39;100.00
13594;BME280;6449;47.666;9.160;2023-08-06T23:49:33;97102.06;;;14.28;100.00
13594;BME280;6449;47.666;9.160;2023-08-06T23:54:26;97101.63;;;14.23;100.00
13594;BME280;6449;47.666;9.160;2023-08-06T23:59:19;97106.78;;;14.34;100.00
